sensor_id;sensor_type;location;lat;lon;timestamp;P1;durP1;ratioP1;P2;durP2;ratioP2
22904;SDS011;11619;50.140;8.518;2023-04-03T00:01:20;3.05;;;1.45;;
22904;SDS011;11619;50.140;8.518;2023-04-03T00:03:46;4.18;;;1.60;;
22904;SDS011;11619;50.140;8.518;2023-04-03T00:06:13;3.85;;;1.65;;
22904;SDS011;11619;50.140;8.518;2023-04-03T00:08:40;2.90;;;1.50;;
22904;SDS011;11619;50.140;8.518;2023-04-03T00:11:07;2.78;;;1.63;;
22904;SDS011;11619;50.140;8.518;2023-04-03T00:13:33;3.38;;;1.58;;
22904;SDS011;11619;50.140;8.518;2023-04-03T00:16:00;2.38;;;1.20;;
22904;SDS011;11619;50.140;8.518;2023-04-03T00:18:26;1.65;;;1.20;;
22904;SDS011;11619;50.140;8.518;2023-04-03T00:20:53;2.28;;;1.50;;
22904;SDS011;11619;50.140;8.518;2023-04-03T00:23:19;3.00;;;1.20;;
22904;SDS011;11619;50.140;8.518;2023-04-03T00:25:50;3.47;;;1.65;;
22904;SDS011;11619;50.140;8.518;2023-04-03T00:28:17;2.70;;;1.45;;
22904;SDS011;11619;50.140;8.518;2023-04-03T00:30:46;2.15;;;1.40;;
22904;SDS011;11619;50.140;8.518;2023-04-03T00:33:14;3.42;;;1.40;;
22904;SDS011;11619;50.140;8.518;2023-04-03T00:35:41;2.15;;;1.30;;
22904;SDS011;11619;50.140;8.518;2023-04-03T00:38:08;4.18;;;1.55;;
22904;SDS011;11619;50.140;8.518;2023-04-03T00:40:38;5.50;;;1.65;;
22904;SDS011;11619;50.140;8.518;2023-04-03T00:43:11;3.28;;;1.65;;
22904;SDS011;11619;50.140;8.518;2023-04-03T00:45:40;3.00;;;1.55;;
22904;SDS011;11619;50.140;8.518;2023-04-03T00:48:09;4.55;;;1.55;;
22904;SDS011;11619;50.140;8.518;2023-04-03T00:50:39;2.00;;;1.70;;
22904;SDS011;11619;50.140;8.518;2023-04-03T00:53:06;2.80;;;1.33;;
22904;SDS011;11619;50.140;8.518;2023-04-03T00:55:35;2.28;;;1.40;;
22904;SDS011;11619;50.140;8.518;2023-04-03T00:58:03;3.67;;;1.60;;
22904;SDS011;11619;50.140;8.518;2023-04-03T01:00:30;3.85;;;1.70;;
22904;SDS011;11619;50.140;8.518;2023-04-03T01:02:56;2.30;;;1.60;;
22904;SDS011;11619;50.140;8.518;2023-04-03T01:05:25;2.15;;;1.58;;
22904;SDS011;11619;50.140;8.518;2023-04-03T01:07:51;3.40;;;1.45;;
22904;SDS011;11619;50.140;8.518;2023-04-03T01:10:19;7.00;;;1.75;;
22904;SDS011;11619;50.140;8.518;2023-04-03T01:12:48;1.58;;;1.15;;
22904;SDS011;11619;50.140;8.518;2023-04-03T01:15:19;2.15;;;1.15;;
22904;SDS011;11619;50.140;8.518;2023-04-03T01:17:53;2.67;;;1.40;;
22904;SDS011;11619;50.140;8.518;2023-04-03T01:20:36;3.35;;;1.65;;
22904;SDS011;11619;50.140;8.518;2023-04-03T01:23:28;3.85;;;1.88;;
22904;SDS011;11619;50.140;8.518;2023-04-03T01:25:59;1.90;;;1.33;;
22904;SDS011;11619;50.140;8.518;2023-04-03T01:28:30;2.70;;;1.65;;
22904;SDS011;11619;50.140;8.518;2023-04-03T01:33:46;2.70;;;1.65;;
22904;SDS011;11619;50.140;8.518;2023-04-03T01:36:18;2.35;;;1.35;;
22904;SDS011;11619;50.140;8.518;2023-04-03T01:38:55;3.72;;;2.05;;
22904;SDS011;11619;50.140;8.518;2023-04-03T01:41:22;2.15;;;1.60;;
22904;SDS011;11619;50.140;8.518;2023-04-03T01:43:49;3.20;;;2.15;;
22904;SDS011;11619;50.140;8.518;2023-04-03T01:46:16;5.45;;;1.80;;
22904;SDS011;11619;50.140;8.518;2023-04-03T01:48:43;5.30;;;1.70;;
22904;SDS011;11619;50.140;8.518;2023-04-03T01:51:09;3.13;;;1.50;;
22904;SDS011;11619;50.140;8.518;2023-04-03T01:53:36;2.58;;;1.50;;
22904;SDS011;11619;50.140;8.518;2023-04-03T01:56:02;5.20;;;1.80;;
22904;SDS011;11619;50.140;8.518;2023-04-03T01:58:29;3.83;;;1.60;;
22904;SDS011;11619;50.140;8.518;2023-04-03T02:01:03;4.32;;;2.00;;
22904;SDS011;11619;50.140;8.518;2023-04-03T02:03:42;3.15;;;1.70;;
22904;SDS011;11619;50.140;8.518;2023-04-03T02:06:16;2.92;;;1.52;;
22904;SDS011;11619;50.140;8.518;2023-04-03T02:08:46;2.83;;;1.73;;
22904;SDS011;11619;50.140;8.518;2023-04-03T02:11:18;2.47;;;1.80;;
22904;SDS011;11619;50.140;8.518;2023-04-03T02:13:46;2.55;;;1.45;;
22904;SDS011;11619;50.140;8.518;2023-04-03T02:16:15;4.75;;;1.80;;
22904;SDS011;11619;50.140;8.518;2023-04-03T02:18:47;4.25;;;1.55;;
22904;SDS011;11619;50.140;8.518;2023-04-03T02:21:14;7.03;;;1.90;;
22904;SDS011;11619;50.140;8.518;2023-04-03T02:23:40;3.15;;;1.90;;
22904;SDS011;11619;50.140;8.518;2023-04-03T02:26:07;4.00;;;2.13;;
22904;SDS011;11619;50.140;8.518;2023-04-03T02:28:36;5.05;;;1.60;;
22904;SDS011;11619;50.140;8.518;2023-04-03T02:31:03;3.75;;;1.63;;
22904;SDS011;11619;50.140;8.518;2023-04-03T02:33:30;4.63;;;1.92;;
22904;SDS011;11619;50.140;8.518;2023-04-03T02:35:57;5.00;;;2.15;;
22904;SDS011;11619;50.140;8.518;2023-04-03T02:38:24;4.68;;;2.20;;
22904;SDS011;11619;50.140;8.518;2023-04-03T02:40:51;5.47;;;2.40;;
22904;SDS011;11619;50.140;8.518;2023-04-03T02:43:18;3.58;;;1.73;;
22904;SDS011;11619;50.140;8.518;2023-04-03T02:45:44;2.72;;;1.60;;
22904;SDS011;11619;50.140;8.518;2023-04-03T02:48:10;2.50;;;1.80;;
22904;SDS011;11619;50.140;8.518;2023-04-03T02:50:38;2.50;;;1.77;;
22904;SDS011;11619;50.140;8.518;2023-04-03T02:53:04;3.15;;;1.80;;
22904;SDS011;11619;50.140;8.518;2023-04-03T02:55:30;5.47;;;2.20;;
22904;SDS011;11619;50.140;8.518;2023-04-03T02:57:57;1.80;;;1.63;;
22904;SDS011;11619;50.140;8.518;2023-04-03T03:00:23;7.05;;;1.90;;
22904;SDS011;11619;50.140;8.518;2023-04-03T03:02:52;3.60;;;1.85;;
22904;SDS011;11619;50.140;8.518;2023-04-03T03:05:19;5.13;;;1.98;;
22904;SDS011;11619;50.140;8.518;2023-04-03T03:07:48;4.40;;;1.95;;
22904;SDS011;11619;50.140;8.518;2023-04-03T03:10:15;7.78;;;1.83;;
22904;SDS011;11619;50.140;8.518;2023-04-03T03:12:41;4.57;;;2.08;;
22904;SDS011;11619;50.140;8.518;2023-04-03T03:15:08;4.43;;;1.65;;
22904;SDS011;11619;50.140;8.518;2023-04-03T03:17:35;4.68;;;1.70;;
22904;SDS011;11619;50.140;8.518;2023-04-03T03:20:02;4.38;;;1.73;;
22904;SDS011;11619;50.140;8.518;2023-04-03T03:22:31;7.75;;;2.20;;
22904;SDS011;11619;50.140;8.518;2023-04-03T03:24:58;4.38;;;1.52;;
22904;SDS011;11619;50.140;8.518;2023-04-03T03:27:25;3.28;;;1.58;;
22904;SDS011;11619;50.140;8.518;2023-04-03T03:29:51;3.35;;;1.45;;
22904;SDS011;11619;50.140;8.518;2023-04-03T03:32:18;3.10;;;1.85;;
22904;SDS011;11619;50.140;8.518;2023-04-03T03:34:45;3.78;;;1.67;;
22904;SDS011;11619;50.140;8.518;2023-04-03T03:37:11;5.47;;;1.92;;
22904;SDS011;11619;50.140;8.518;2023-04-03T03:39:37;5.78;;;2.08;;
22904;SDS011;11619;50.140;8.518;2023-04-03T03:42:04;4.57;;;1.83;;
22904;SDS011;11619;50.140;8.518;2023-04-03T03:44:30;7.13;;;1.98;;
22904;SDS011;11619;50.140;8.518;2023-04-03T03:46:57;3.65;;;1.60;;
22904;SDS011;11619;50.140;8.518;2023-04-03T03:49:23;4.78;;;1.80;;
22904;SDS011;11619;50.140;8.518;2023-04-03T03:51:49;5.03;;;1.88;;
22904;SDS011;11619;50.140;8.518;2023-04-03T03:54:16;3.55;;;1.70;;
22904;SDS011;11619;50.140;8.518;2023-04-03T03:56:43;2.88;;;1.70;;
22904;SDS011;11619;50.140;8.518;2023-04-03T03:59:12;4.57;;;1.63;;
22904;SDS011;11619;50.140;8.518;2023-04-03T04:01:39;4.10;;;1.73;;
22904;SDS011;11619;50.140;8.518;2023-04-03T04:04:06;4.97;;;1.73;;
22904;SDS011;11619;50.140;8.518;2023-04-03T04:06:32;4.60;;;1.70;;
22904;SDS011;11619;50.140;8.518;2023-04-03T04:08:59;3.90;;;1.80;;
22904;SDS011;11619;50.140;8.518;2023-04-03T04:11:25;4.57;;;1.77;;
22904;SDS011;11619;50.140;8.518;2023-04-03T04:13:53;4.28;;;1.75;;
22904;SDS011;11619;50.140;8.518;2023-04-03T04:16:19;5.05;;;2.00;;
22904;SDS011;11619;50.140;8.518;2023-04-03T04:18:46;2.60;;;1.90;;
22904;SDS011;11619;50.140;8.518;2023-04-03T04:21:12;6.47;;;1.80;;
22904;SDS011;11619;50.140;8.518;2023-04-03T04:23:39;3.33;;;2.03;;
22904;SDS011;11619;50.140;8.518;2023-04-03T04:26:05;4.32;;;1.85;;
22904;SDS011;11619;50.140;8.518;2023-04-03T04:28:32;3.80;;;2.03;;
22904;SDS011;11619;50.140;8.518;2023-04-03T04:30:58;8.88;;;2.22;;
22904;SDS011;11619;50.140;8.518;2023-04-03T04:33:24;4.50;;;1.77;;
22904;SDS011;11619;50.140;8.518;2023-04-03T04:35:51;5.32;;;2.17;;
22904;SDS011;11619;50.140;8.518;2023-04-03T04:38:18;5.85;;;2.20;;
22904;SDS011;11619;50.140;8.518;2023-04-03T04:40:44;4.63;;;1.90;;
22904;SDS011;11619;50.140;8.518;2023-04-03T04:43:10;3.30;;;1.80;;
22904;SDS011;11619;50.140;8.518;2023-04-03T04:45:40;5.00;;;2.03;;
22904;SDS011;11619;50.140;8.518;2023-04-03T04:48:07;6.35;;;2.03;;
22904;SDS011;11619;50.140;8.518;2023-04-03T04:50:33;5.22;;;2.17;;
22904;SDS011;11619;50.140;8.518;2023-04-03T04:53:00;4.03;;;2.05;;
22904;SDS011;11619;50.140;8.518;2023-04-03T04:55:26;6.03;;;2.00;;
22904;SDS011;11619;50.140;8.518;2023-04-03T04:57:53;5.45;;;2.35;;
22904;SDS011;11619;50.140;8.518;2023-04-03T05:00:19;6.57;;;2.28;;
22904;SDS011;11619;50.140;8.518;2023-04-03T05:02:46;3.72;;;1.88;;
22904;SDS011;11619;50.140;8.518;2023-04-03T05:05:13;7.00;;;2.10;;
22904;SDS011;11619;50.140;8.518;2023-04-03T05:07:39;4.93;;;2.40;;
22904;SDS011;11619;50.140;8.518;2023-04-03T05:10:06;4.65;;;2.03;;
22904;SDS011;11619;50.140;8.518;2023-04-03T05:12:33;4.57;;;2.25;;
22904;SDS011;11619;50.140;8.518;2023-04-03T05:15:00;9.65;;;2.42;;
22904;SDS011;11619;50.140;8.518;2023-04-03T05:17:27;5.60;;;2.40;;
22904;SDS011;11619;50.140;8.518;2023-04-03T05:19:53;6.75;;;2.50;;
22904;SDS011;11619;50.140;8.518;2023-04-03T05:22:20;4.88;;;2.15;;
22904;SDS011;11619;50.140;8.518;2023-04-03T05:24:46;6.88;;;2.05;;
22904;SDS011;11619;50.140;8.518;2023-04-03T05:27:13;4.93;;;2.13;;
22904;SDS011;11619;50.140;8.518;2023-04-03T05:29:39;5.53;;;2.45;;
22904;SDS011;11619;50.140;8.518;2023-04-03T05:32:10;6.20;;;2.30;;
22904;SDS011;11619;50.140;8.518;2023-04-03T05:34:37;5.93;;;2.50;;
22904;SDS011;11619;50.140;8.518;2023-04-03T05:37:03;7.95;;;2.53;;
22904;SDS011;11619;50.140;8.518;2023-04-03T05:39:31;7.90;;;2.88;;
22904;SDS011;11619;50.140;8.518;2023-04-03T05:41:57;7.35;;;2.72;;
22904;SDS011;11619;50.140;8.518;2023-04-03T05:44:24;5.57;;;2.30;;
22904;SDS011;11619;50.140;8.518;2023-04-03T05:46:50;5.60;;;2.45;;
22904;SDS011;11619;50.140;8.518;2023-04-03T05:49:17;4.60;;;2.50;;
22904;SDS011;11619;50.140;8.518;2023-04-03T05:51:44;4.65;;;2.22;;
22904;SDS011;11619;50.140;8.518;2023-04-03T05:54:21;8.35;;;2.50;;
22904;SDS011;11619;50.140;8.518;2023-04-03T05:56:52;5.13;;;2.30;;
22904;SDS011;11619;50.140;8.518;2023-04-03T05:59:19;6.75;;;2.05;;
22904;SDS011;11619;50.140;8.518;2023-04-03T06:01:46;7.07;;;2.22;;
22904;SDS011;11619;50.140;8.518;2023-04-03T06:04:13;4.60;;;2.28;;
22904;SDS011;11619;50.140;8.518;2023-04-03T06:06:43;3.42;;;1.88;;
22904;SDS011;11619;50.140;8.518;2023-04-03T06:09:10;5.35;;;1.90;;
22904;SDS011;11619;50.140;8.518;2023-04-03T06:11:37;4.25;;;2.35;;
22904;SDS011;11619;50.140;8.518;2023-04-03T06:14:03;5.38;;;2.33;;
22904;SDS011;11619;50.140;8.518;2023-04-03T06:16:29;5.90;;;2.10;;
22904;SDS011;11619;50.140;8.518;2023-04-03T06:18:56;4.47;;;1.80;;
22904;SDS011;11619;50.140;8.518;2023-04-03T06:21:23;3.78;;;2.13;;
22904;SDS011;11619;50.140;8.518;2023-04-03T06:23:49;4.63;;;2.45;;
22904;SDS011;11619;50.140;8.518;2023-04-03T06:26:17;8.93;;;2.78;;
22904;SDS011;11619;50.140;8.518;2023-04-03T06:28:44;5.60;;;2.25;;
22904;SDS011;11619;50.140;8.518;2023-04-03T06:31:10;10.20;;;2.42;;
22904;SDS011;11619;50.140;8.518;2023-04-03T06:33:36;4.47;;;2.78;;
22904;SDS011;11619;50.140;8.518;2023-04-03T06:36:04;3.85;;;2.10;;
22904;SDS011;11619;50.140;8.518;2023-04-03T06:38:31;10.85;;;2.63;;
22904;SDS011;11619;50.140;8.518;2023-04-03T06:40:59;4.97;;;2.40;;
22904;SDS011;11619;50.140;8.518;2023-04-03T06:43:26;5.85;;;2.20;;
22904;SDS011;11619;50.140;8.518;2023-04-03T06:45:52;7.45;;;2.20;;
22904;SDS011;11619;50.140;8.518;2023-04-03T06:48:19;3.83;;;1.92;;
22904;SDS011;11619;50.140;8.518;2023-04-03T06:50:45;3.58;;;1.98;;
22904;SDS011;11619;50.140;8.518;2023-04-03T06:53:11;4.47;;;2.05;;
22904;SDS011;11619;50.140;8.518;2023-04-03T06:55:38;5.10;;;2.13;;
22904;SDS011;11619;50.140;8.518;2023-04-03T06:58:05;5.57;;;2.13;;
22904;SDS011;11619;50.140;8.518;2023-04-03T07:00:31;6.07;;;2.63;;
22904;SDS011;11619;50.140;8.518;2023-04-03T07:02:58;4.30;;;2.13;;
22904;SDS011;11619;50.140;8.518;2023-04-03T07:05:24;4.90;;;1.95;;
22904;SDS011;11619;50.140;8.518;2023-04-03T07:07:52;6.25;;;2.20;;
22904;SDS011;11619;50.140;8.518;2023-04-03T07:10:19;5.70;;;2.35;;
22904;SDS011;11619;50.140;8.518;2023-04-03T07:12:46;4.53;;;2.35;;
22904;SDS011;11619;50.140;8.518;2023-04-03T07:15:12;4.00;;;2.15;;
22904;SDS011;11619;50.140;8.518;2023-04-03T07:17:40;4.03;;;2.00;;
22904;SDS011;11619;50.140;8.518;2023-04-03T07:20:07;7.10;;;2.45;;
22904;SDS011;11619;50.140;8.518;2023-04-03T07:22:34;8.10;;;2.38;;
22904;SDS011;11619;50.140;8.518;2023-04-03T07:25:00;3.85;;;2.30;;
22904;SDS011;11619;50.140;8.518;2023-04-03T07:27:30;4.38;;;2.55;;
22904;SDS011;11619;50.140;8.518;2023-04-03T07:29:56;28.85;;;4.53;;
22904;SDS011;11619;50.140;8.518;2023-04-03T07:32:22;6.90;;;2.55;;
22904;SDS011;11619;50.140;8.518;2023-04-03T07:34:49;9.00;;;2.92;;
22904;SDS011;11619;50.140;8.518;2023-04-03T07:37:15;7.57;;;2.30;;
22904;SDS011;11619;50.140;8.518;2023-04-03T07:39:44;7.20;;;2.70;;
22904;SDS011;11619;50.140;8.518;2023-04-03T07:42:11;4.45;;;2.38;;
22904;SDS011;11619;50.140;8.518;2023-04-03T07:44:38;5.90;;;2.65;;
22904;SDS011;11619;50.140;8.518;2023-04-03T07:47:04;8.38;;;2.92;;
22904;SDS011;11619;50.140;8.518;2023-04-03T07:49:31;5.95;;;2.88;;
22904;SDS011;11619;50.140;8.518;2023-04-03T07:51:58;4.82;;;2.35;;
22904;SDS011;11619;50.140;8.518;2023-04-03T07:54:25;5.13;;;2.70;;
22904;SDS011;11619;50.140;8.518;2023-04-03T07:56:51;7.65;;;2.75;;
22904;SDS011;11619;50.140;8.518;2023-04-03T07:59:18;9.25;;;2.72;;
22904;SDS011;11619;50.140;8.518;2023-04-03T08:01:45;8.10;;;3.15;;
22904;SDS011;11619;50.140;8.518;2023-04-03T08:04:11;7.82;;;2.78;;
22904;SDS011;11619;50.140;8.518;2023-04-03T08:06:38;5.43;;;2.53;;
22904;SDS011;11619;50.140;8.518;2023-04-03T08:09:13;3.70;;;2.20;;
22904;SDS011;11619;50.140;8.518;2023-04-03T08:11:41;5.30;;;2.63;;
22904;SDS011;11619;50.140;8.518;2023-04-03T08:14:10;6.63;;;2.53;;
22904;SDS011;11619;50.140;8.518;2023-04-03T08:16:42;9.45;;;3.03;;
22904;SDS011;11619;50.140;8.518;2023-04-03T08:19:09;6.50;;;2.28;;
22904;SDS011;11619;50.140;8.518;2023-04-03T08:21:50;5.05;;;2.30;;
22904;SDS011;11619;50.140;8.518;2023-04-03T08:24:17;3.95;;;2.40;;
22904;SDS011;11619;50.140;8.518;2023-04-03T08:26:43;5.43;;;2.38;;
22904;SDS011;11619;50.140;8.518;2023-04-03T08:29:11;6.80;;;2.15;;
22904;SDS011;11619;50.140;8.518;2023-04-03T08:31:40;5.40;;;2.65;;
22904;SDS011;11619;50.140;8.518;2023-04-03T08:34:07;6.13;;;2.30;;
22904;SDS011;11619;50.140;8.518;2023-04-03T08:36:34;5.32;;;2.45;;
22904;SDS011;11619;50.140;8.518;2023-04-03T08:39:01;4.32;;;2.35;;
22904;SDS011;11619;50.140;8.518;2023-04-03T08:41:35;3.88;;;2.17;;
22904;SDS011;11619;50.140;8.518;2023-04-03T08:44:15;7.53;;;2.53;;
22904;SDS011;11619;50.140;8.518;2023-04-03T08:47:22;4.13;;;2.05;;
22904;SDS011;11619;50.140;8.518;2023-04-03T08:55:00;5.68;;;2.13;;
22904;SDS011;11619;50.140;8.518;2023-04-03T08:57:48;5.95;;;2.10;;
22904;SDS011;11619;50.140;8.518;2023-04-03T09:00:18;4.43;;;1.75;;
22904;SDS011;11619;50.140;8.518;2023-04-03T09:05:19;4.15;;;2.20;;
22904;SDS011;11619;50.140;8.518;2023-04-03T09:07:50;7.20;;;2.38;;
22904;SDS011;11619;50.140;8.518;2023-04-03T09:10:24;3.70;;;2.08;;
22904;SDS011;11619;50.140;8.518;2023-04-03T09:12:59;4.45;;;1.90;;
22904;SDS011;11619;50.140;8.518;2023-04-03T09:15:45;4.07;;;1.90;;
22904;SDS011;11619;50.140;8.518;2023-04-03T09:21:13;6.20;;;2.13;;
22904;SDS011;11619;50.140;8.518;2023-04-03T09:23:44;3.35;;;2.05;;
22904;SDS011;11619;50.140;8.518;2023-04-03T09:26:16;3.90;;;2.22;;
22904;SDS011;11619;50.140;8.518;2023-04-03T09:28:45;6.30;;;2.63;;
22904;SDS011;11619;50.140;8.518;2023-04-03T09:31:23;4.40;;;2.22;;
22904;SDS011;11619;50.140;8.518;2023-04-03T09:33:53;7.95;;;2.38;;
22904;SDS011;11619;50.140;8.518;2023-04-03T09:39:10;4.93;;;2.22;;
22904;SDS011;11619;50.140;8.518;2023-04-03T09:41:40;4.82;;;2.30;;
22904;SDS011;11619;50.140;8.518;2023-04-03T09:44:20;5.05;;;2.28;;
22904;SDS011;11619;50.140;8.518;2023-04-03T09:46:48;6.15;;;2.33;;
22904;SDS011;11619;50.140;8.518;2023-04-03T09:49:15;5.60;;;2.22;;
22904;SDS011;11619;50.140;8.518;2023-04-03T09:51:41;7.53;;;2.28;;
22904;SDS011;11619;50.140;8.518;2023-04-03T09:57:02;6.25;;;2.50;;
22904;SDS011;11619;50.140;8.518;2023-04-03T09:59:32;4.40;;;2.25;;
22904;SDS011;11619;50.140;8.518;2023-04-03T10:02:00;7.40;;;2.25;;
22904;SDS011;11619;50.140;8.518;2023-04-03T10:04:37;3.33;;;1.98;;
22904;SDS011;11619;50.140;8.518;2023-04-03T10:10:26;7.93;;;2.05;;
22904;SDS011;11619;50.140;8.518;2023-04-03T10:13:35;3.55;;;2.10;;
22904;SDS011;11619;50.140;8.518;2023-04-03T10:18:30;3.58;;;1.95;;
22904;SDS011;11619;50.140;8.518;2023-04-03T10:20:59;5.68;;;2.15;;
22904;SDS011;11619;50.140;8.518;2023-04-03T10:23:42;5.55;;;2.58;;
22904;SDS011;11619;50.140;8.518;2023-04-03T10:29:27;4.43;;;2.05;;
22904;SDS011;11619;50.140;8.518;2023-04-03T10:31:46;3.33;;;2.10;;
22904;SDS011;11619;50.140;8.518;2023-04-03T10:34:36;5.47;;;2.17;;
22904;SDS011;11619;50.140;8.518;2023-04-03T10:47:56;3.45;;;2.20;;
22904;SDS011;11619;50.140;8.518;2023-04-03T10:50:43;6.57;;;2.95;;
22904;SDS011;11619;50.140;8.518;2023-04-03T10:53:17;3.35;;;2.13;;
22904;SDS011;11619;50.140;8.518;2023-04-03T10:56:03;3.42;;;2.05;;
22904;SDS011;11619;50.140;8.518;2023-04-03T10:58:34;3.67;;;2.38;;
22904;SDS011;11619;50.140;8.518;2023-04-03T11:01:06;5.85;;;2.30;;
22904;SDS011;11619;50.140;8.518;2023-04-03T11:03:36;4.03;;;1.90;;
22904;SDS011;11619;50.140;8.518;2023-04-03T11:06:10;4.35;;;2.40;;
22904;SDS011;11619;50.140;8.518;2023-04-03T11:08:44;4.20;;;2.05;;
22904;SDS011;11619;50.140;8.518;2023-04-03T11:11:26;2.88;;;2.25;;
22904;SDS011;11619;50.140;8.518;2023-04-03T11:17:19;2.72;;;2.17;;
22904;SDS011;11619;50.140;8.518;2023-04-03T11:19:52;4.18;;;2.53;;
22904;SDS011;11619;50.140;8.518;2023-04-03T11:22:33;3.92;;;2.55;;
22904;SDS011;11619;50.140;8.518;2023-04-03T11:25:03;4.85;;;2.33;;
22904;SDS011;11619;50.140;8.518;2023-04-03T11:27:38;4.57;;;2.38;;
22904;SDS011;11619;50.140;8.518;2023-04-03T11:30:09;2.97;;;2.25;;
22904;SDS011;11619;50.140;8.518;2023-04-03T11:32:56;5.15;;;2.10;;
22904;SDS011;11619;50.140;8.518;2023-04-03T11:35:44;4.25;;;2.25;;
22904;SDS011;11619;50.140;8.518;2023-04-03T11:38:21;3.38;;;1.92;;
22904;SDS011;11619;50.140;8.518;2023-04-03T11:40:53;2.55;;;2.22;;
22904;SDS011;11619;50.140;8.518;2023-04-03T11:45:56;2.83;;;1.95;;
22904;SDS011;11619;50.140;8.518;2023-04-03T11:51:02;3.75;;;2.30;;
22904;SDS011;11619;50.140;8.518;2023-04-03T11:53:53;4.30;;;1.80;;
22904;SDS011;11619;50.140;8.518;2023-04-03T12:01:45;3.15;;;2.28;;
22904;SDS011;11619;50.140;8.518;2023-04-03T12:04:13;5.72;;;2.35;;
22904;SDS011;11619;50.140;8.518;2023-04-03T12:06:49;3.67;;;2.10;;
22904;SDS011;11619;50.140;8.518;2023-04-03T12:09:32;2.90;;;2.00;;
22904;SDS011;11619;50.140;8.518;2023-04-03T12:12:01;3.28;;;2.00;;
22904;SDS011;11619;50.140;8.518;2023-04-03T12:14:48;2.75;;;2.13;;
22904;SDS011;11619;50.140;8.518;2023-04-03T12:17:26;4.35;;;1.90;;
22904;SDS011;11619;50.140;8.518;2023-04-03T12:19:53;3.00;;;1.80;;
22904;SDS011;11619;50.140;8.518;2023-04-03T12:22:20;4.03;;;2.08;;
22904;SDS011;11619;50.140;8.518;2023-04-03T12:24:48;2.83;;;2.03;;
22904;SDS011;11619;50.140;8.518;2023-04-03T12:27:18;2.67;;;2.17;;
22904;SDS011;11619;50.140;8.518;2023-04-03T12:30:17;3.50;;;2.10;;
22904;SDS011;11619;50.140;8.518;2023-04-03T12:35:54;3.22;;;2.60;;
22904;SDS011;11619;50.140;8.518;2023-04-03T12:41:16;3.75;;;2.22;;
22904;SDS011;11619;50.140;8.518;2023-04-03T12:46:38;2.78;;;1.95;;
22904;SDS011;11619;50.140;8.518;2023-04-03T12:49:29;3.22;;;1.98;;
22904;SDS011;11619;50.140;8.518;2023-04-03T12:51:59;3.10;;;1.90;;
22904;SDS011;11619;50.140;8.518;2023-04-03T12:54:35;2.78;;;1.70;;
22904;SDS011;11619;50.140;8.518;2023-04-03T12:57:35;4.22;;;2.03;;
22904;SDS011;11619;50.140;8.518;2023-04-03T12:59:55;3.55;;;1.85;;
22904;SDS011;11619;50.140;8.518;2023-04-03T13:02:26;3.75;;;1.70;;
22904;SDS011;11619;50.140;8.518;2023-04-03T13:04:58;2.55;;;1.85;;
22904;SDS011;11619;50.140;8.518;2023-04-03T13:07:30;3.08;;;1.77;;
22904;SDS011;11619;50.140;8.518;2023-04-03T13:10:00;2.60;;;1.93;;
22904;SDS011;11619;50.140;8.518;2023-04-03T13:12:29;2.45;;;1.60;;
22904;SDS011;11619;50.140;8.518;2023-04-03T13:14:58;4.70;;;1.95;;
22904;SDS011;11619;50.140;8.518;2023-04-03T13:17:27;2.50;;;1.85;;
22904;SDS011;11619;50.140;8.518;2023-04-03T13:19:54;2.55;;;2.03;;
22904;SDS011;11619;50.140;8.518;2023-04-03T13:22:33;3.42;;;1.90;;
22904;SDS011;11619;50.140;8.518;2023-04-03T13:25:09;3.80;;;1.80;;
22904;SDS011;11619;50.140;8.518;2023-04-03T13:27:37;5.07;;;1.70;;
22904;SDS011;11619;50.140;8.518;2023-04-03T13:30:05;2.70;;;1.60;;
22904;SDS011;11619;50.140;8.518;2023-04-03T13:32:33;3.45;;;1.92;;
22904;SDS011;11619;50.140;8.518;2023-04-03T13:34:59;2.55;;;1.90;;
22904;SDS011;11619;50.140;8.518;2023-04-03T13:37:53;2.88;;;1.95;;
22904;SDS011;11619;50.140;8.518;2023-04-03T13:40:21;3.97;;;2.20;;
22904;SDS011;11619;50.140;8.518;2023-04-03T13:42:58;3.55;;;2.30;;
22904;SDS011;11619;50.140;8.518;2023-04-03T13:45:27;3.90;;;2.17;;
22904;SDS011;11619;50.140;8.518;2023-04-03T13:48:09;4.05;;;2.60;;
22904;SDS011;11619;50.140;8.518;2023-04-03T13:50:58;3.85;;;2.28;;
22904;SDS011;11619;50.140;8.518;2023-04-03T13:53:27;4.47;;;1.92;;
22904;SDS011;11619;50.140;8.518;2023-04-03T13:58:26;5.43;;;2.25;;
22904;SDS011;11619;50.140;8.518;2023-04-03T14:00:56;4.93;;;2.55;;
22904;SDS011;11619;50.140;8.518;2023-04-03T14:03:31;3.83;;;2.10;;
22904;SDS011;11619;50.140;8.518;2023-04-03T14:06:18;3.92;;;2.28;;
22904;SDS011;11619;50.140;8.518;2023-04-03T14:08:45;5.95;;;2.10;;
22904;SDS011;11619;50.140;8.518;2023-04-03T14:11:19;5.82;;;2.65;;
22904;SDS011;11619;50.140;8.518;2023-04-03T14:13:50;3.83;;;1.55;;
22904;SDS011;11619;50.140;8.518;2023-04-03T14:16:18;5.45;;;1.92;;
22904;SDS011;11619;50.140;8.518;2023-04-03T14:18:48;2.10;;;1.88;;
22904;SDS011;11619;50.140;8.518;2023-04-03T14:21:16;2.05;;;1.63;;
22904;SDS011;11619;50.140;8.518;2023-04-03T14:23:43;2.72;;;1.65;;
22904;SDS011;11619;50.140;8.518;2023-04-03T14:26:13;4.80;;;2.13;;
22904;SDS011;11619;50.140;8.518;2023-04-03T14:28:42;2.20;;;1.60;;
22904;SDS011;11619;50.140;8.518;2023-04-03T14:31:11;4.63;;;1.92;;
22904;SDS011;11619;50.140;8.518;2023-04-03T14:33:39;4.68;;;1.70;;
22904;SDS011;11619;50.140;8.518;2023-04-03T14:38:40;3.53;;;1.92;;
22904;SDS011;11619;50.140;8.518;2023-04-03T14:41:10;3.05;;;1.60;;
22904;SDS011;11619;50.140;8.518;2023-04-03T14:43:43;2.70;;;1.83;;
22904;SDS011;11619;50.140;8.518;2023-04-03T14:46:25;1.55;;;1.40;;
22904;SDS011;11619;50.140;8.518;2023-04-03T14:49:12;3.00;;;1.60;;
22904;SDS011;11619;50.140;8.518;2023-04-03T14:51:41;2.53;;;1.70;;
22904;SDS011;11619;50.140;8.518;2023-04-03T14:54:14;2.33;;;1.45;;
22904;SDS011;11619;50.140;8.518;2023-04-03T14:56:43;2.13;;;1.40;;
22904;SDS011;11619;50.140;8.518;2023-04-03T14:59:14;2.53;;;1.45;;
22904;SDS011;11619;50.140;8.518;2023-04-03T15:01:41;3.22;;;1.70;;
22904;SDS011;11619;50.140;8.518;2023-04-03T15:04:25;2.92;;;1.50;;
22904;SDS011;11619;50.140;8.518;2023-04-03T15:09:26;4.60;;;1.60;;
22904;SDS011;11619;50.140;8.518;2023-04-03T15:11:53;1.40;;;1.30;;
22904;SDS011;11619;50.140;8.518;2023-04-03T15:14:24;3.50;;;1.27;;
22904;SDS011;11619;50.140;8.518;2023-04-03T15:17:02;6.05;;;1.60;;
22904;SDS011;11619;50.140;8.518;2023-04-03T15:19:31;5.20;;;1.90;;
22904;SDS011;11619;50.140;8.518;2023-04-03T15:22:02;2.20;;;1.30;;
22904;SDS011;11619;50.140;8.518;2023-04-03T15:24:29;1.98;;;1.55;;
22904;SDS011;11619;50.140;8.518;2023-04-03T15:26:55;1.63;;;1.30;;
22904;SDS011;11619;50.140;8.518;2023-04-03T15:29:22;2.88;;;1.60;;
22904;SDS011;11619;50.140;8.518;2023-04-03T15:31:48;1.77;;;1.20;;
22904;SDS011;11619;50.140;8.518;2023-04-03T15:34:18;2.38;;;1.65;;
22904;SDS011;11619;50.140;8.518;2023-04-03T15:36:45;3.70;;;1.40;;
22904;SDS011;11619;50.140;8.518;2023-04-03T15:39:11;2.88;;;2.03;;
22904;SDS011;11619;50.140;8.518;2023-04-03T15:41:38;3.92;;;1.77;;
22904;SDS011;11619;50.140;8.518;2023-04-03T15:44:04;3.55;;;1.50;;
22904;SDS011;11619;50.140;8.518;2023-04-03T15:46:32;2.90;;;1.65;;
22904;SDS011;11619;50.140;8.518;2023-04-03T15:48:58;2.40;;;1.60;;
22904;SDS011;11619;50.140;8.518;2023-04-03T15:51:25;3.58;;;1.63;;
22904;SDS011;11619;50.140;8.518;2023-04-03T15:53:51;1.35;;;1.23;;
22904;SDS011;11619;50.140;8.518;2023-04-03T15:56:18;2.50;;;1.10;;
22904;SDS011;11619;50.140;8.518;2023-04-03T15:58:44;3.70;;;1.52;;
22904;SDS011;11619;50.140;8.518;2023-04-03T16:01:11;2.80;;;1.48;;
22904;SDS011;11619;50.140;8.518;2023-04-03T16:03:39;2.58;;;1.65;;
22904;SDS011;11619;50.140;8.518;2023-04-03T16:06:15;3.15;;;1.65;;
22904;SDS011;11619;50.140;8.518;2023-04-03T16:08:45;3.00;;;1.70;;
22904;SDS011;11619;50.140;8.518;2023-04-03T16:11:12;4.50;;;1.80;;
22904;SDS011;11619;50.140;8.518;2023-04-03T16:13:39;3.03;;;1.52;;